createdAt,value
2022-11-03T00:01:51.375Z,98494.63
2022-11-03T00:04:21.052Z,98491.59
2022-11-03T00:06:53.747Z,98508.75
2022-11-03T00:09:22.058Z,98515.19
2022-11-03T00:11:53.241Z,98530.34
2022-11-03T00:14:20.123Z,98540.41
2022-11-03T00:16:47.649Z,98553.78
2022-11-03T00:19:17.521Z,98559.38
2022-11-03T00:21:45.324Z,98567.47
2022-11-03T00:24:12.976Z,98574.69
2022-11-03T00:26:40.347Z,98584.72
2022-11-03T00:29:09.835Z,98588.63
2022-11-03T00:31:38.767Z,98584.84
2022-11-03T00:34:07.403Z,98599.50
2022-11-03T00:36:36.783Z,98598.94
2022-11-03T00:39:05.028Z,98617.63
2022-11-03T00:41:32.558Z,98634.44
2022-11-03T00:43:59.917Z,98639.34
2022-11-03T00:46:27.408Z,98622.03
2022-11-03T00:48:54.223Z,98631.94
2022-11-03T00:51:23.782Z,98643.78
2022-11-03T00:53:58.595Z,98658.69
2022-11-03T00:56:27.085Z,98661.47
2022-11-03T00:58:55.213Z,98673.03
2022-11-03T01:01:33.628Z,98687.34
2022-11-03T01:04:19.473Z,98691.97
2022-11-03T01:06:52.042Z,98700.16
2022-11-03T01:09:29.831Z,98706.44
2022-11-03T01:12:01.530Z,98712.69
2022-11-03T01:14:50.567Z,98733.16
2022-11-03T01:17:23.380Z,98715.88
2022-11-03T01:19:50.906Z,98715.03
2022-11-03T01:22:18.466Z,98725.91
2022-11-03T01:24:46.070Z,98743.69
2022-11-03T01:27:15.934Z,98736.88
2022-11-03T01:29:43.530Z,98743.97
2022-11-03T01:32:11.186Z,98750.38
2022-11-03T01:34:39.631Z,98759.28
2022-11-03T01:37:07.114Z,98746.19
2022-11-03T01:39:34.362Z,98772.88
2022-11-03T01:42:01.565Z,98765.94
2022-11-03T01:44:34.073Z,98803.81
2022-11-03T01:47:07.914Z,98793.50
2022-11-03T01:49:46.704Z,98810.31
2022-11-03T01:52:36.409Z,98814.91
2022-11-03T01:55:13.232Z,98823.09
2022-11-03T01:57:45.361Z,98810.03
2022-11-03T02:00:12.899Z,98823.34
2022-11-03T02:02:40.983Z,98829.63
2022-11-03T02:05:10.657Z,98838.53
2022-11-03T02:07:40.009Z,98839.63
2022-11-03T02:10:07.310Z,98845.88
2022-11-03T02:12:35.186Z,98857.53
2022-11-03T02:15:08.339Z,98849.75
2022-11-03T02:17:37.881Z,98857.81
2022-11-03T02:20:11.415Z,98859.63
2022-11-03T02:22:52.789Z,98867.81
2022-11-03T02:25:49.066Z,98864.31
2022-11-03T02:28:19.824Z,98864.31
2022-11-03T02:30:50.878Z,98859.28
2022-11-03T02:33:32.063Z,98859.28
2022-11-03T02:36:14.001Z,98881.53
2022-11-03T02:38:47.763Z,98878.91
2022-11-03T02:41:16.473Z,98876.41
2022-11-03T02:43:44.904Z,98886.13
2022-11-03T02:46:14.954Z,98880.00
2022-11-03T02:48:42.111Z,98884.69
2022-11-03T02:51:09.024Z,98883.84
2022-11-03T02:53:45.376Z,98890.81
2022-11-03T02:56:20.718Z,98897.06
2022-11-03T02:59:11.565Z,98895.41
2022-11-03T03:01:48.347Z,98896.34
2022-11-03T03:04:21.673Z,98892.06
2022-11-03T03:07:00.301Z,98916.78
2022-11-03T03:09:31.652Z,98910.06
2022-11-03T03:12:01.530Z,98911.75
2022-11-03T03:14:36.071Z,98910.06
2022-11-03T03:17:12.202Z,98900.44
2022-11-03T03:19:58.308Z,98894.47
2022-11-03T03:22:34.379Z,98899.75
2022-11-03T03:25:09.473Z,98904.69
2022-11-03T03:27:42.262Z,98907.91
2022-11-03T03:30:10.076Z,98908.03
2022-11-03T03:32:39.985Z,98893.16
2022-11-03T03:35:11.274Z,98896.75
2022-11-03T03:37:41.440Z,98912.75
2022-11-03T03:40:11.882Z,98927.88
2022-11-03T03:42:40.983Z,98932.44
2022-11-03T03:45:10.370Z,98935.09
2022-11-03T03:47:37.423Z,98931.03
2022-11-03T03:50:04.914Z,98927.31
2022-11-03T03:52:34.845Z,98929.94
2022-11-03T03:55:01.764Z,98926.56
2022-11-03T03:57:32.007Z,98924.91
2022-11-03T03:59:58.894Z,98923.22
2022-11-03T04:02:25.747Z,98923.47
2022-11-03T04:04:52.689Z,98926.94
2022-11-03T04:07:42.499Z,98931.38
2022-11-03T04:10:10.921Z,98943.78
2022-11-03T04:12:56.379Z,98938.59
2022-11-03T04:15:41.846Z,98929.84
2022-11-03T04:18:27.479Z,98923.72
2022-11-03T04:21:13.158Z,98916.78
2022-11-03T04:23:40.021Z,98910.78
2022-11-03T04:26:13.129Z,98898.38
2022-11-03T04:28:41.347Z,98918.69
2022-11-03T04:31:13.518Z,98925.78
2022-11-03T04:33:41.947Z,98921.44
2022-11-03T04:36:24.809Z,98905.31
2022-11-03T04:38:52.434Z,98939.22
2022-11-03T04:41:25.586Z,98948.94
2022-11-03T04:43:53.615Z,98949.34
2022-11-03T04:46:31.394Z,98967.56
2022-11-03T04:49:01.179Z,98976.44
2022-11-03T04:51:31.509Z,98980.03
2022-11-03T04:54:13.446Z,98978.50
2022-11-03T04:56:40.834Z,98987.97
2022-11-03T04:59:15.649Z,98991.13
2022-11-03T05:01:45.566Z,98999.63
2022-11-03T05:04:15.385Z,98991.81
2022-11-03T05:06:49.419Z,98991.81
2022-11-03T05:09:21.173Z,98964.03
2022-11-03T05:11:48.370Z,98998.06
2022-11-03T05:14:20.153Z,98991.81
2022-11-03T05:16:48.738Z,98998.06
2022-11-03T05:19:40.419Z,98992.78
2022-11-03T05:22:16.428Z,99003.34
2022-11-03T05:24:44.302Z,99008.75
2022-11-03T05:27:21.276Z,99002.63
2022-11-03T05:29:50.253Z,99001.31
2022-11-03T05:32:22.427Z,99012.47
2022-11-03T05:34:51.967Z,99006.34
2022-11-03T05:37:37.040Z,99017.75
2022-11-03T05:40:17.784Z,99025.78
2022-11-03T05:42:47.080Z,99030.25
2022-11-03T05:45:21.247Z,99026.63
2022-11-03T05:47:49.958Z,99030.25
2022-11-03T05:50:21.392Z,99017.16
2022-11-03T05:52:51.298Z,99016.31
2022-11-03T05:55:33.596Z,99030.50
2022-11-03T05:58:05.745Z,99028.81
2022-11-03T06:00:37.799Z,99014.66
2022-11-03T06:03:05.525Z,99021.72
2022-11-03T06:05:34.697Z,99025.94
2022-11-03T06:08:10.792Z,99023.28
2022-11-03T06:10:45.483Z,99020.78
2022-11-03T06:13:16.641Z,99025.22
2022-11-03T06:15:46.025Z,99025.22
2022-11-03T06:18:15.680Z,99035.78
2022-11-03T06:20:50.644Z,99031.44
2022-11-03T06:23:19.914Z,99041.06
2022-11-03T06:25:47.675Z,99034.69
2022-11-03T06:28:37.202Z,99049.44
2022-11-03T06:31:27.804Z,99055.44
2022-11-03T06:33:57.806Z,99065.06
2022-11-03T06:36:32.635Z,99073.31
2022-11-03T06:39:04.669Z,99084.97
2022-11-03T06:41:33.234Z,99095.28
2022-11-03T06:44:03.458Z,99102.03
2022-11-03T06:46:31.318Z,99117.75
2022-11-03T06:49:00.732Z,99110.53
2022-11-03T06:51:29.624Z,99122.66
2022-11-03T06:54:00.033Z,99130.56
2022-11-03T06:56:29.982Z,99139.34
2022-11-03T06:58:57.785Z,99140.31
2022-11-03T07:01:32.786Z,99150.75
2022-11-03T07:04:13.394Z,99148.84
2022-11-03T07:06:41.336Z,99165.53
2022-11-03T07:09:15.437Z,99169.97
2022-11-03T07:11:47.453Z,99169.72
2022-11-03T07:14:22.364Z,99168.06
2022-11-03T07:16:52.665Z,99169.72
2022-11-03T07:19:29.664Z,99172.25
2022-11-03T07:21:58.732Z,99168.53
2022-11-03T07:24:40.469Z,99170.94
2022-11-03T07:27:29.089Z,99165.25
2022-11-03T07:30:06.252Z,99169.03
2022-11-03T07:32:34.566Z,99153.53
2022-11-03T07:35:12.763Z,99158.09
2022-11-03T07:37:39.740Z,99162.19
2022-11-03T07:40:14.453Z,99171.22
2022-11-03T07:42:41.372Z,99164.16
2022-11-03T07:45:39.537Z,99177.63
2022-11-03T07:48:20.277Z,99193.31
2022-11-03T07:50:52.062Z,99193.31
2022-11-03T07:53:40.615Z,99189.59
2022-11-03T07:56:15.147Z,99197.53
2022-11-03T07:58:43.313Z,99201.16
2022-11-03T08:01:44.286Z,99206.16
2022-11-03T08:04:17.267Z,99202.56
2022-11-03T08:06:44.549Z,99207.63
2022-11-03T08:09:11.564Z,99211.13
2022-11-03T08:11:38.533Z,99200.31
2022-11-03T08:14:05.471Z,99207.16
2022-11-03T08:16:32.395Z,99199.25
2022-11-03T08:18:59.331Z,99200.91
2022-11-03T08:21:26.270Z,99202.59
2022-11-03T08:23:53.251Z,99206.94
2022-11-03T08:26:20.727Z,99211.16
2022-11-03T08:28:47.854Z,99212.94
2022-11-03T08:31:15.209Z,99211.88
2022-11-03T08:33:42.252Z,99216.66
2022-11-03T08:36:10.166Z,99221.44
2022-11-03T08:38:38.070Z,99231.91
2022-11-03T08:41:05.275Z,99228.28
2022-11-03T08:43:32.239Z,99236.97
2022-11-03T08:46:09.725Z,99231.69
2022-11-03T08:48:40.385Z,99238.53
2022-11-03T08:51:08.707Z,99233.56
2022-11-03T08:53:35.664Z,99249.09
2022-11-03T08:56:02.723Z,99255.94
2022-11-03T08:58:29.608Z,99255.09
2022-11-03T09:00:56.508Z,99244.41
2022-11-03T09:03:23.895Z,99257.38
2022-11-03T09:05:51.239Z,99259.06
2022-11-03T09:11:05.812Z,99266.88
2022-11-03T09:13:32.725Z,99271.06
2022-11-03T09:15:59.805Z,99278.06
2022-11-03T09:18:26.717Z,99291.97
2022-11-03T09:20:53.653Z,99298.09
2022-11-03T09:23:20.883Z,99293.91
2022-11-03T09:25:48.071Z,99297.25
2022-11-03T09:28:15.296Z,99300.66
2022-11-03T09:30:42.405Z,99312.66
2022-11-03T09:33:09.567Z,99309.88
2022-11-03T09:35:37.152Z,99307.75
2022-11-03T09:38:04.285Z,99315.69
2022-11-03T09:40:31.386Z,99318.44
2022-11-03T09:42:58.642Z,99313.28
2022-11-03T09:45:26.056Z,99310.50
2022-11-03T09:47:53.182Z,99315.78
2022-11-03T09:50:21.497Z,99310.28
2022-11-03T09:52:51.691Z,99319.28
2022-11-03T09:55:24.263Z,99319.28
2022-11-03T09:57:54.876Z,99317.47
2022-11-03T10:00:24.275Z,99320.97
2022-11-03T10:02:52.108Z,99319.91
2022-11-03T10:05:29.277Z,99321.69
2022-11-03T10:08:03.607Z,99326.84
2022-11-03T10:10:32.153Z,99326.97
2022-11-03T10:13:00.734Z,99328.53
2022-11-03T10:15:28.534Z,99335.53
2022-11-03T10:17:56.823Z,99341.56
2022-11-03T10:20:23.925Z,99336.13
2022-11-03T10:22:53.707Z,99344.06
2022-11-03T10:25:37.533Z,99343.97
2022-11-03T10:28:24.394Z,99343.13
2022-11-03T10:31:17.546Z,99351.78
2022-11-03T10:33:55.504Z,99353.34
2022-11-03T10:36:25.266Z,99353.09
2022-11-03T10:38:53.076Z,99349.53
2022-11-03T10:41:21.266Z,99348.53
2022-11-03T10:44:11.376Z,99346.50
2022-11-03T10:46:55.791Z,99339.28
2022-11-03T10:49:23.068Z,99331.59
2022-11-03T10:51:52.886Z,99330.41
2022-11-03T10:54:23.372Z,99329.34
2022-11-03T10:56:52.088Z,99328.34
2022-11-03T10:59:32.007Z,99335.34
2022-11-03T11:02:00.634Z,99341.34
2022-11-03T11:04:28.039Z,99335.09
2022-11-03T11:06:55.386Z,99328.72
2022-11-03T11:09:27.474Z,99334.41
2022-11-03T11:12:04.852Z,99334.03
2022-11-03T11:14:35.131Z,99337.28
2022-11-03T11:17:02.997Z,99329.00
2022-11-03T11:19:31.187Z,99336.56
2022-11-03T11:22:00.450Z,99340.66
2022-11-03T11:24:45.617Z,99343.66
2022-11-03T11:27:33.480Z,99343.28
2022-11-03T11:30:05.401Z,99334.03
2022-11-03T11:32:50.338Z,99334.50
2022-11-03T11:35:23.561Z,99334.16
2022-11-03T11:37:50.670Z,99334.63
2022-11-03T11:40:20.227Z,99338.69
2022-11-03T11:43:11.267Z,99332.06
2022-11-03T11:46:15.837Z,99330.50
2022-11-03T11:48:42.777Z,99333.53
2022-11-03T11:51:12.321Z,99328.69
2022-11-03T11:53:46.106Z,99331.44
2022-11-03T11:56:16.736Z,99327.84
2022-11-03T11:58:51.185Z,99332.75
2022-11-03T12:01:33.056Z,99329.66
2022-11-03T12:04:06.211Z,99328.06
2022-11-03T12:06:42.902Z,99314.06
2022-11-03T12:09:12.888Z,99318.63
2022-11-03T12:12:08.960Z,99319.66
2022-11-03T12:14:40.515Z,99325.63
2022-11-03T12:17:19.453Z,99321.38
2022-11-03T12:19:54.290Z,99327.00
2022-11-03T12:22:24.184Z,99321.28
2022-11-03T12:24:56.059Z,99322.47
2022-11-03T12:27:25.846Z,99337.84
2022-11-03T12:29:54.238Z,99330.22
2022-11-03T12:32:37.402Z,99333.22
2022-11-03T12:35:06.129Z,99332.81
2022-11-03T12:37:33.307Z,99330.75
2022-11-03T12:40:00.387Z,99333.88
2022-11-03T12:42:27.469Z,99325.25
2022-11-03T12:44:54.371Z,99334.50
2022-11-03T12:47:21.322Z,99331.31
2022-11-03T12:49:49.243Z,99337.06
2022-11-03T12:52:16.348Z,99330.38
2022-11-03T12:54:43.331Z,99333.63
2022-11-03T12:57:10.257Z,99327.78
2022-11-03T12:59:37.181Z,99334.47
2022-11-03T13:02:04.582Z,99334.38
2022-11-03T13:04:31.842Z,99330.19
2022-11-03T13:06:58.911Z,99328.38
2022-11-03T13:09:25.973Z,99327.13
2022-11-03T13:12:11.710Z,99333.59
2022-11-03T13:14:38.719Z,99325.22
2022-11-03T13:17:05.637Z,99328.84
2022-11-03T13:19:32.584Z,99335.25
2022-11-03T13:22:00.408Z,99336.38
2022-11-03T13:24:27.650Z,99332.31
2022-11-03T13:26:54.832Z,99335.25
2022-11-03T13:29:21.722Z,99338.63
2022-11-03T13:31:48.792Z,99338.63
2022-11-03T13:34:15.888Z,99335.00
2022-11-03T13:36:42.921Z,99343.66
2022-11-03T13:39:10.044Z,99347.03
2022-11-03T13:41:36.917Z,99349.53
2022-11-03T13:44:03.972Z,99345.53
2022-11-03T13:46:30.992Z,99342.84
2022-11-03T13:51:45.380Z,99341.41
2022-11-03T13:59:46.878Z,99336.63
2022-11-03T14:05:05.565Z,99344.44
2022-11-03T14:07:34.391Z,99347.38
2022-11-03T14:10:03.865Z,99338.75
2022-11-03T14:12:31.469Z,99336.50
2022-11-03T14:15:08.077Z,99335.53
2022-11-03T14:17:36.422Z,99336.09
2022-11-03T14:20:05.686Z,99332.47
2022-11-03T14:22:33.196Z,99331.63
2022-11-03T14:25:01.402Z,99349.53
2022-11-03T14:27:28.904Z,99351.22
2022-11-03T14:29:56.056Z,99353.47
2022-11-03T14:32:23.209Z,99349.00
2022-11-03T14:34:50.214Z,99345.94
2022-11-03T14:37:17.559Z,99336.31
2022-11-03T14:39:44.546Z,99339.66
2022-11-03T14:42:16.176Z,99345.81
2022-11-03T14:44:45.066Z,99340.94
2022-11-03T14:47:14.325Z,99346.63
2022-11-03T14:49:41.524Z,99355.69
2022-11-03T14:52:08.834Z,99350.66
2022-11-03T14:54:36.982Z,99355.97
2022-11-03T14:57:05.444Z,99357.38
2022-11-03T14:59:32.937Z,99361.00
2022-11-03T15:02:00.831Z,99359.75
2022-11-03T15:04:28.634Z,99360.75
2022-11-03T15:06:55.971Z,99362.97
2022-11-03T15:09:22.996Z,99360.22
2022-11-03T15:11:50.189Z,99362.72
2022-11-03T15:14:17.357Z,99362.88
2022-11-03T15:16:46.327Z,99352.94
2022-11-03T15:19:13.415Z,99356.16
2022-11-03T15:21:40.655Z,99359.66
2022-11-03T15:26:55.907Z,99361.00
2022-11-03T15:29:24.512Z,99361.97
2022-11-03T15:31:52.599Z,99360.56
2022-11-03T15:34:19.715Z,99354.56
2022-11-03T15:36:46.768Z,99355.13
2022-11-03T15:39:13.947Z,99362.84
2022-11-03T15:41:41.490Z,99359.06
2022-11-03T15:44:08.598Z,99358.06
2022-11-03T15:46:36.104Z,99360.72
2022-11-03T15:49:03.781Z,99372.34
2022-11-03T15:51:31.020Z,99380.16
2022-11-03T15:53:59.223Z,99378.78
2022-11-03T15:56:27.750Z,99387.88
2022-11-03T15:58:54.723Z,99377.66
2022-11-03T16:01:21.742Z,99385.78
2022-11-03T16:03:48.841Z,99390.09
2022-11-03T16:06:16.126Z,99388.28
2022-11-03T16:08:43.260Z,99399.06
2022-11-03T16:11:10.220Z,99398.50
2022-11-03T16:13:37.406Z,99400.19
2022-11-03T16:16:04.696Z,99404.66
2022-11-03T16:18:31.692Z,99412.63
2022-11-03T16:20:58.667Z,99413.91
2022-11-03T16:23:25.552Z,99420.19
2022-11-03T16:25:52.723Z,99424.66
2022-11-03T16:28:19.759Z,99424.94
2022-11-03T16:30:52.813Z,99431.38
2022-11-03T16:33:21.211Z,99439.19
2022-11-03T16:35:48.208Z,99443.66
2022-11-03T16:38:15.755Z,99440.03
2022-11-03T16:40:43.350Z,99441.72
2022-11-03T16:43:11.177Z,99446.19
2022-11-03T16:45:38.613Z,99444.38
2022-11-03T16:48:07.030Z,99453.19
2022-11-03T16:50:34.524Z,99465.63
2022-11-03T16:53:01.527Z,99461.72
2022-11-03T16:55:28.678Z,99459.31
2022-11-03T16:57:55.755Z,99470.53
2022-11-03T17:00:24.463Z,99473.03
2022-11-03T17:02:51.628Z,99492.66
2022-11-03T17:05:21.112Z,99484.25
2022-11-03T17:07:53.311Z,99488.19
2022-11-03T17:10:22.188Z,99496.16
2022-11-03T17:12:49.971Z,99496.25
2022-11-03T17:15:17.567Z,99505.50
2022-11-03T17:17:44.658Z,99504.50
2022-11-03T17:20:12.327Z,99513.91
2022-11-03T17:22:40.294Z,99520.88
2022-11-03T17:25:09.855Z,99519.75
2022-11-03T17:27:50.055Z,99513.81
2022-11-03T17:30:43.968Z,99525.31
2022-11-03T17:33:17.891Z,99530.88
2022-11-03T17:35:46.776Z,99534.81
2022-11-03T17:38:17.444Z,99541.53
2022-11-03T17:40:48.590Z,99541.28
2022-11-03T17:43:20.967Z,99546.59
2022-11-03T17:45:48.900Z,99551.63
2022-11-03T17:48:16.408Z,99553.34
2022-11-03T17:50:48.578Z,99557.28
2022-11-03T17:53:25.071Z,99543.81
2022-11-03T17:56:23.375Z,99565.38
2022-11-03T17:58:46.128Z,99566.22
2022-11-03T18:01:20.483Z,99568.47
2022-11-03T18:03:47.939Z,99566.66
2022-11-03T18:06:17.271Z,99570.41
2022-11-03T18:08:45.128Z,99587.38
2022-11-03T18:11:36.076Z,99580.38
2022-11-03T18:14:04.006Z,99585.31
2022-11-03T18:16:32.038Z,99585.03
2022-11-03T18:18:59.169Z,99591.06
2022-11-03T18:21:27.380Z,99590.66
2022-11-03T18:23:56.006Z,99592.91
2022-11-03T18:26:25.256Z,99592.78
2022-11-03T18:28:53.180Z,99598.53
2022-11-03T18:31:47.668Z,99599.25
2022-11-03T18:34:24.572Z,99601.91
2022-11-03T18:36:53.058Z,99623.50
2022-11-03T18:39:25.781Z,99626.84
2022-11-03T18:41:53.371Z,99629.34
2022-11-03T18:44:20.460Z,99627.41
2022-11-03T18:46:48.755Z,99632.72
2022-11-03T18:49:16.396Z,99632.59
2022-11-03T18:52:02.071Z,99631.50
2022-11-03T18:54:30.604Z,99635.69
2022-11-03T18:56:57.916Z,99642.72
2022-11-03T18:59:35.325Z,99644.53
2022-11-03T19:02:03.056Z,99645.38
2022-11-03T19:04:32.257Z,99651.38
2022-11-03T19:06:59.715Z,99654.06
2022-11-03T19:09:27.499Z,99650.53
2022-11-03T19:11:59.676Z,99657.69
2022-11-03T19:14:33.494Z,99661.34
2022-11-03T19:19:53.774Z,99669.56
2022-11-03T19:22:22.652Z,99680.59
2022-11-03T19:24:49.953Z,99675.16
2022-11-03T19:27:26.943Z,99682.03
2022-11-03T19:29:56.306Z,99682.63
2022-11-03T19:32:27.687Z,99684.53
2022-11-03T19:35:00.913Z,99697.31
2022-11-03T19:37:35.123Z,99696.13
2022-11-03T19:40:06.319Z,99704.53
2022-11-03T19:42:37.218Z,99703.44
2022-11-03T19:45:16.204Z,99709.44
2022-11-03T19:48:26.354Z,99707.38
2022-11-03T19:50:53.912Z,99706.25
2022-11-03T19:53:23.939Z,99718.28
2022-11-03T19:55:51.281Z,99717.44
2022-11-03T19:58:23.688Z,99705.13
2022-11-03T20:00:51.850Z,99709.91
2022-11-03T20:03:19.507Z,99701.91
2022-11-03T20:05:49.744Z,99719.75
2022-11-03T20:08:23.630Z,99716.97
2022-11-03T20:10:51.346Z,99712.44
2022-11-03T20:13:27.259Z,99717.50
2022-11-03T20:16:00.639Z,99716.28
2022-11-03T20:18:31.561Z,99728.75
2022-11-03T20:20:58.672Z,99727.91
2022-11-03T20:23:31.579Z,99732.63
2022-11-03T20:25:59.558Z,99730.13
2022-11-03T20:28:29.751Z,99731.66
2022-11-03T20:30:57.933Z,99731.41
2022-11-03T20:33:25.793Z,99729.59
2022-11-03T20:35:54.588Z,99724.25
2022-11-03T20:38:23.354Z,99724.00
2022-11-03T20:40:59.187Z,99724.00
2022-11-03T20:43:41.251Z,99723.69
2022-11-03T20:46:24.734Z,99730.03
2022-11-03T20:48:52.966Z,99729.03
2022-11-03T20:51:23.158Z,99736.03
2022-11-03T20:53:51.107Z,99741.38
2022-11-03T20:56:22.429Z,99747.38
2022-11-03T20:58:49.753Z,99742.63
2022-11-03T21:01:24.999Z,99750.88
2022-11-03T21:03:59.470Z,99765.31
2022-11-03T21:06:29.034Z,99778.47
2022-11-03T21:08:56.621Z,99770.50
2022-11-03T21:11:29.875Z,99786.69
2022-11-03T21:14:13.652Z,99781.56
2022-11-03T21:16:59.697Z,99785.16
2022-11-03T21:19:47.888Z,99795.84
2022-11-03T21:22:38.332Z,99798.31
2022-11-03T21:25:13.273Z,99807.19
2022-11-03T21:27:42.235Z,99818.31
2022-11-03T21:30:12.665Z,99815.59
2022-11-03T21:32:39.625Z,99819.47
2022-11-03T21:35:07.195Z,99820.00
2022-11-03T21:37:34.497Z,99827.63
2022-11-03T21:40:01.672Z,99829.81
2022-11-03T21:42:47.130Z,99839.81
2022-11-03T21:45:15.134Z,99840.06
2022-11-03T21:48:03.194Z,99837.06
2022-11-03T21:50:30.299Z,99841.91
2022-11-03T21:53:00.511Z,99839.63
2022-11-03T21:55:28.883Z,99851.22
2022-11-03T21:57:56.214Z,99865.69
2022-11-03T22:00:23.515Z,99868.47
2022-11-03T22:02:50.964Z,99870.53
2022-11-03T22:05:18.198Z,99882.47
2022-11-03T22:07:45.520Z,99879.09
2022-11-03T22:10:12.820Z,99881.28
2022-11-03T22:12:40.310Z,99890.47
2022-11-03T22:15:26.487Z,99885.41
2022-11-03T22:18:04.889Z,99881.28
2022-11-03T22:20:50.988Z,99896.50
2022-11-03T22:23:36.999Z,99899.38
2022-11-03T22:26:22.712Z,99918.19
2022-11-03T22:29:12.672Z,99911.53
2022-11-03T22:31:42.647Z,99908.31
2022-11-03T22:34:28.319Z,99912.16
2022-11-03T22:36:55.499Z,99934.59
2022-11-03T22:39:41.315Z,99939.19
2022-11-03T22:42:30.239Z,99942.16
2022-11-03T22:45:15.723Z,99951.34
2022-11-03T22:47:42.701Z,99945.41
2022-11-03T22:50:10.483Z,99955.53
2022-11-03T22:52:37.640Z,99948.63
2022-11-03T22:55:04.992Z,99960.28
2022-11-03T22:57:32.199Z,99962.44
2022-11-03T22:59:59.852Z,99958.44
2022-11-03T23:02:26.939Z,99964.59
2022-11-03T23:04:54.363Z,99967.47
2022-11-03T23:07:21.401Z,99966.75
2022-11-03T23:09:48.371Z,99966.97
2022-11-03T23:12:15.378Z,99977.81
2022-11-03T23:15:00.956Z,99964.28
2022-11-03T23:17:48.796Z,99979.97
2022-11-03T23:20:34.298Z,99975.22
2022-11-03T23:23:01.327Z,99977.97
2022-11-03T23:25:28.217Z,99984.22
2022-11-03T23:27:55.196Z,99983.50
2022-11-03T23:30:22.248Z,99986.38
2022-11-03T23:32:49.134Z,99986.63
2022-11-03T23:35:17.185Z,99981.53
2022-11-03T23:37:44.174Z,99998.53
2022-11-03T23:40:13.182Z,99991.63
2022-11-03T23:42:42.731Z,99996.19
2022-11-03T23:45:28.389Z,99992.81
2022-11-03T23:48:13.939Z,99999.16
2022-11-03T23:50:43.649Z,99994.94
2022-11-03T23:53:10.526Z,99991.56
2022-11-03T23:55:57.383Z,99993.56
2022-11-03T23:58:24.215Z,100006.19
